createdAt,value
2018-04-07T00:00:35.156Z,11.99
2018-04-07T00:01:35.115Z,11.95
2018-04-07T00:02:35.075Z,11.88
2018-04-07T00:03:35.027Z,11.96
2018-04-07T00:04:34.985Z,11.88
2018-04-07T00:05:34.940Z,11.86
2018-04-07T00:06:34.899Z,11.93
2018-04-07T00:07:34.855Z,11.88
2018-04-07T00:08:34.812Z,11.85
2018-04-07T00:09:34.764Z,11.71
2018-04-07T00:10:34.748Z,11.76
2018-04-07T00:11:34.679Z,11.74
2018-04-07T00:12:34.637Z,11.74
2018-04-07T00:13:34.597Z,11.63
2018-04-07T00:14:34.548Z,11.67
2018-04-07T00:15:34.506Z,11.68
2018-04-07T00:16:34.463Z,11.65
2018-04-07T00:17:34.421Z,11.65
2018-04-07T00:18:34.379Z,11.67
2018-04-07T00:19:34.335Z,11.67
2018-04-07T00:20:34.287Z,11.65
2018-04-07T00:21:34.245Z,11.62
2018-04-07T00:22:34.201Z,11.63
2018-04-07T00:23:34.168Z,11.63
2018-04-07T00:24:34.114Z,11.58
2018-04-07T00:25:34.072Z,11.55
2018-04-07T00:26:34.028Z,11.55
2018-04-07T00:27:33.992Z,11.58
2018-04-07T00:28:33.941Z,11.56
2018-04-07T00:29:33.899Z,11.52
2018-04-07T00:30:33.853Z,11.55
2018-04-07T00:31:33.814Z,11.49
2018-04-07T00:32:33.774Z,11.48
2018-04-07T00:33:33.725Z,11.51
2018-04-07T00:34:33.679Z,11.43
2018-04-07T00:35:33.637Z,11.43
2018-04-07T00:36:33.594Z,11.55
2018-04-07T00:37:33.551Z,11.55
2018-04-07T00:38:33.506Z,11.55
2018-04-07T00:39:33.463Z,11.45
2018-04-07T00:40:33.420Z,11.56
2018-04-07T00:41:33.373Z,11.48
2018-04-07T00:42:33.331Z,11.44
2018-04-07T00:43:33.289Z,11.51
2018-04-07T00:44:33.244Z,11.52
2018-04-07T00:45:33.200Z,11.56
2018-04-07T00:46:33.157Z,11.49
2018-04-07T00:47:33.112Z,11.53
2018-04-07T00:48:33.067Z,11.43
2018-04-07T00:49:33.031Z,11.51
2018-04-07T00:50:32.982Z,11.52
2018-04-07T00:51:32.938Z,11.59
2018-04-07T00:52:32.897Z,11.45
2018-04-07T00:53:32.850Z,11.44
2018-04-07T00:54:32.808Z,11.51
2018-04-07T00:55:32.767Z,11.55
2018-04-07T00:56:32.720Z,11.51
2018-04-07T00:57:32.678Z,11.60
2018-04-07T00:58:32.632Z,11.56
2018-04-07T00:59:32.592Z,11.62
2018-04-07T01:00:32.547Z,11.60
2018-04-07T01:01:32.506Z,11.59
2018-04-07T01:02:32.457Z,11.60
2018-04-07T01:03:32.414Z,11.55
2018-04-07T01:04:32.369Z,11.59
2018-04-07T01:05:32.329Z,11.55
2018-04-07T01:06:32.283Z,11.56
2018-04-07T01:07:32.241Z,11.60
2018-04-07T01:08:32.195Z,11.62
2018-04-07T01:09:32.154Z,11.55
2018-04-07T01:10:32.108Z,11.68
2018-04-07T01:11:32.067Z,11.58
2018-04-07T01:12:32.022Z,11.58
2018-04-07T01:13:31.977Z,11.60
2018-04-07T01:14:31.937Z,11.62
2018-04-07T01:15:31.892Z,11.55
2018-04-07T01:16:31.859Z,11.65
2018-04-07T01:17:31.804Z,11.65
2018-04-07T01:18:31.759Z,11.58
2018-04-07T01:19:31.720Z,11.59
2018-04-07T01:20:31.675Z,11.58
2018-04-07T01:21:31.631Z,11.53
2018-04-07T01:22:31.586Z,11.70
2018-04-07T01:23:31.541Z,11.67
2018-04-07T01:24:31.497Z,11.68
2018-04-07T01:25:31.453Z,11.68
2018-04-07T01:26:31.414Z,11.68
2018-04-07T01:27:31.373Z,11.63
2018-04-07T01:28:31.332Z,11.62
2018-04-07T01:29:31.277Z,11.71
2018-04-07T01:30:31.235Z,11.68
2018-04-07T01:31:31.191Z,11.85
2018-04-07T01:32:31.148Z,11.76
2018-04-07T01:33:31.104Z,11.78
2018-04-07T01:34:31.060Z,11.77
2018-04-07T01:35:31.018Z,11.67
2018-04-07T01:36:30.973Z,11.78
2018-04-07T01:37:30.929Z,11.73
2018-04-07T01:38:30.887Z,11.80
2018-04-07T01:39:30.845Z,11.71
2018-04-07T01:40:30.800Z,11.78
2018-04-07T01:41:30.755Z,11.78
2018-04-07T01:42:30.715Z,11.83
2018-04-07T01:43:30.673Z,11.73
2018-04-07T01:44:30.622Z,11.70
2018-04-07T01:45:30.583Z,11.76
2018-04-07T01:46:30.538Z,11.85
2018-04-07T01:47:30.503Z,11.77
2018-04-07T01:48:30.449Z,11.88
2018-04-07T01:49:30.409Z,11.85
2018-04-07T01:50:30.361Z,11.76
2018-04-07T01:51:30.323Z,11.85
2018-04-07T01:52:30.274Z,11.70
2018-04-07T01:53:30.231Z,11.78
2018-04-07T01:54:30.187Z,11.65
2018-04-07T01:55:30.142Z,11.65
2018-04-07T01:56:30.099Z,11.65
2018-04-07T01:57:30.056Z,11.68
2018-04-07T01:58:30.013Z,11.65
2018-04-07T01:59:29.971Z,11.65
2018-04-07T02:00:29.924Z,11.60
2018-04-07T02:01:29.880Z,11.63
2018-04-07T02:02:29.836Z,11.60
2018-04-07T02:03:29.794Z,11.70
2018-04-07T02:04:29.753Z,11.59
2018-04-07T02:05:29.707Z,11.68
2018-04-07T02:06:29.662Z,11.71
2018-04-07T02:07:29.619Z,11.71
2018-04-07T02:08:29.574Z,11.68
2018-04-07T02:09:29.531Z,11.63
2018-04-07T02:10:29.487Z,11.68
2018-04-07T02:11:29.444Z,11.60
2018-04-07T02:12:29.403Z,11.52
2018-04-07T02:13:29.359Z,11.53
2018-04-07T02:14:29.317Z,11.58
2018-04-07T02:15:29.272Z,11.58
2018-04-07T02:16:29.225Z,11.52
2018-04-07T02:17:29.180Z,11.55
2018-04-07T02:18:29.137Z,11.51
2018-04-07T02:19:29.093Z,11.53
2018-04-07T02:20:29.049Z,11.48
2018-04-07T02:21:29.005Z,11.53
2018-04-07T02:22:28.962Z,11.53
2018-04-07T02:23:28.927Z,11.51
2018-04-07T02:24:28.876Z,11.53
2018-04-07T02:25:28.832Z,11.53
2018-04-07T02:26:28.790Z,11.51
2018-04-07T02:27:28.746Z,11.43
2018-04-07T02:28:28.698Z,11.53
2018-04-07T02:29:28.660Z,11.48
2018-04-07T02:30:28.612Z,11.48
2018-04-07T02:31:28.569Z,11.37
2018-04-07T02:32:28.528Z,11.43
2018-04-07T02:33:28.482Z,11.43
2018-04-07T02:34:28.441Z,11.44
2018-04-07T02:35:28.394Z,11.41
2018-04-07T02:36:28.352Z,11.44
2018-04-07T02:37:28.313Z,11.41
2018-04-07T02:38:28.265Z,11.44
2018-04-07T02:39:28.221Z,11.44
2018-04-07T02:40:28.179Z,11.43
2018-04-07T02:41:28.134Z,11.44
2018-04-07T02:42:28.090Z,11.35
2018-04-07T02:43:28.049Z,11.41
2018-04-07T02:44:28.000Z,11.25
2018-04-07T02:45:27.968Z,11.30
2018-04-07T02:46:27.916Z,11.25
2018-04-07T02:47:27.873Z,11.34
2018-04-07T02:48:27.823Z,11.26
2018-04-07T02:49:27.790Z,11.25
2018-04-07T02:50:27.744Z,11.27
2018-04-07T02:51:27.743Z,11.27
2018-04-07T02:52:27.650Z,11.27
2018-04-07T02:53:27.613Z,11.25
2018-04-07T02:54:27.563Z,11.27
2018-04-07T02:55:27.520Z,11.20
2018-04-07T02:56:27.501Z,11.20
2018-04-07T02:57:27.433Z,11.18
2018-04-07T02:58:27.389Z,11.16
2018-04-07T02:59:27.350Z,11.25
2018-04-07T03:00:27.302Z,11.16
2018-04-07T03:01:27.256Z,11.10
2018-04-07T03:02:27.220Z,11.15
2018-04-07T03:03:27.168Z,11.05
2018-04-07T03:04:27.126Z,11.02
2018-04-07T03:05:27.080Z,10.97
2018-04-07T03:06:27.037Z,11.05
2018-04-07T03:07:27.002Z,11.01
2018-04-07T03:08:26.952Z,10.98
2018-04-07T03:09:26.903Z,11.01
2018-04-07T03:10:26.863Z,11.02
2018-04-07T03:11:26.818Z,11.05
2018-04-07T03:12:26.772Z,10.95
2018-04-07T03:13:26.732Z,10.98
2018-04-07T03:14:26.684Z,11.04
2018-04-07T03:15:26.644Z,10.92
2018-04-07T03:16:26.596Z,10.89
2018-04-07T03:17:26.555Z,10.95
2018-04-07T03:18:26.515Z,10.82
2018-04-07T03:19:26.466Z,10.80
2018-04-07T03:20:26.424Z,10.82
2018-04-07T03:21:26.379Z,10.84
2018-04-07T03:22:26.340Z,10.80
2018-04-07T03:23:26.291Z,10.76
2018-04-07T03:24:26.251Z,10.68
2018-04-07T03:25:26.205Z,10.72
2018-04-07T03:26:26.157Z,10.79
2018-04-07T03:27:26.117Z,10.69
2018-04-07T03:28:26.078Z,10.72
2018-04-07T03:29:26.026Z,10.65
2018-04-07T03:30:25.990Z,10.64
2018-04-07T03:31:25.941Z,10.61
2018-04-07T03:32:25.896Z,10.59
2018-04-07T03:33:25.854Z,10.59
2018-04-07T03:34:25.809Z,10.64
2018-04-07T03:35:25.764Z,10.57
2018-04-07T03:36:25.720Z,10.58
2018-04-07T03:37:25.679Z,10.53
2018-04-07T03:38:25.631Z,10.53
2018-04-07T03:39:25.589Z,10.57
2018-04-07T03:40:25.542Z,10.57
2018-04-07T03:41:25.500Z,10.49
2018-04-07T03:42:25.452Z,10.53
2018-04-07T03:43:25.413Z,10.45
2018-04-07T03:44:25.365Z,10.36
2018-04-07T03:45:25.334Z,10.36
2018-04-07T03:46:25.282Z,10.39
2018-04-07T03:47:25.238Z,10.38
2018-04-07T03:48:25.192Z,10.30
2018-04-07T03:49:25.762Z,10.23
2018-04-07T03:50:25.111Z,10.27
2018-04-07T03:51:25.059Z,10.23
2018-04-07T03:52:25.012Z,10.28
2018-04-07T03:53:24.968Z,10.31
2018-04-07T03:54:24.925Z,10.13
2018-04-07T03:55:24.883Z,10.15
2018-04-07T03:56:24.846Z,10.20
2018-04-07T03:57:24.792Z,10.12
2018-04-07T03:58:24.747Z,10.17
2018-04-07T03:59:24.704Z,10.07
2018-04-07T04:00:24.657Z,10.15
2018-04-07T04:01:24.619Z,10.13
2018-04-07T04:02:24.569Z,10.20
2018-04-07T04:03:24.530Z,10.17
2018-04-07T04:04:24.484Z,10.15
2018-04-07T04:05:24.440Z,10.12
2018-04-07T04:06:24.394Z,10.12
2018-04-07T04:07:24.382Z,10.13
2018-04-07T04:08:24.304Z,10.17
2018-04-07T04:09:24.261Z,10.15
2018-04-07T04:10:24.218Z,10.05
2018-04-07T04:11:24.170Z,10.13
2018-04-07T04:12:24.125Z,10.06
2018-04-07T04:13:24.082Z,10.03
2018-04-07T04:14:24.042Z,10.06
2018-04-07T04:15:23.999Z,10.07
2018-04-07T04:16:23.979Z,10.09
2018-04-07T04:17:23.909Z,10.10
2018-04-07T04:18:23.861Z,10.10
2018-04-07T04:19:23.825Z,10.15
2018-04-07T04:20:23.774Z,10.20
2018-04-07T04:21:23.734Z,10.25
2018-04-07T04:22:23.684Z,10.25
2018-04-07T04:23:23.698Z,10.27
2018-04-07T04:24:23.598Z,10.25
2018-04-07T04:25:23.548Z,10.23
2018-04-07T04:26:23.509Z,10.27
2018-04-07T04:27:23.466Z,10.23
2018-04-07T04:28:23.427Z,10.24
2018-04-07T04:29:23.374Z,10.25
2018-04-07T04:30:23.331Z,10.30
2018-04-07T04:31:23.283Z,10.28
2018-04-07T04:32:23.238Z,10.25
2018-04-07T04:33:23.201Z,10.24
2018-04-07T04:34:23.151Z,10.28
2018-04-07T04:35:23.106Z,10.23
2018-04-07T04:36:23.065Z,10.25
2018-04-07T04:37:23.020Z,10.28
2018-04-07T04:38:22.971Z,10.25
2018-04-07T04:39:22.928Z,10.25
2018-04-07T04:40:22.885Z,10.27
2018-04-07T04:41:22.845Z,10.23
2018-04-07T04:42:22.798Z,10.28
2018-04-07T04:43:22.754Z,10.24
2018-04-07T04:44:22.707Z,10.27
2018-04-07T04:45:22.672Z,10.28
2018-04-07T04:46:22.619Z,10.24
2018-04-07T04:47:22.572Z,10.24
2018-04-07T04:48:22.528Z,10.27
2018-04-07T04:49:22.484Z,10.25
2018-04-07T04:50:22.441Z,10.27
2018-04-07T04:51:22.397Z,10.28
2018-04-07T04:52:22.352Z,10.36
2018-04-07T04:53:22.307Z,10.34
2018-04-07T04:54:22.266Z,10.36
2018-04-07T04:55:22.221Z,10.34
2018-04-07T04:56:22.173Z,10.46
2018-04-07T04:57:22.129Z,10.36
2018-04-07T04:58:22.085Z,10.42
2018-04-07T04:59:22.047Z,10.36
2018-04-07T05:00:21.999Z,10.45
2018-04-07T05:01:21.955Z,10.46
2018-04-07T05:02:21.908Z,10.49
2018-04-07T05:03:21.866Z,10.45
2018-04-07T05:04:21.820Z,10.46
2018-04-07T05:05:21.776Z,10.51
2018-04-07T05:06:21.732Z,10.51
2018-04-07T05:07:21.730Z,10.53
2018-04-07T05:08:21.644Z,10.53
2018-04-07T05:09:21.597Z,10.64
2018-04-07T05:10:21.554Z,10.62
2018-04-07T05:11:21.512Z,10.59
2018-04-07T05:12:21.469Z,10.65
2018-04-07T05:13:21.422Z,10.64
2018-04-07T05:14:21.377Z,10.61
2018-04-07T05:15:21.335Z,10.62
2018-04-07T05:16:21.287Z,10.72
2018-04-07T05:17:21.243Z,10.77
2018-04-07T05:18:21.199Z,10.77
2018-04-07T05:19:21.154Z,10.82
2018-04-07T05:20:21.111Z,10.83
2018-04-07T05:21:21.067Z,10.84
2018-04-07T05:22:21.026Z,10.87
2018-04-07T05:23:20.980Z,10.87
2018-04-07T05:24:20.933Z,10.94
2018-04-07T05:25:20.890Z,10.94
2018-04-07T05:26:20.853Z,10.97
2018-04-07T05:27:20.801Z,10.95
2018-04-07T05:28:20.757Z,11.02
2018-04-07T05:29:20.713Z,11.05
2018-04-07T05:30:20.669Z,11.07
2018-04-07T05:31:20.629Z,11.07
2018-04-07T05:32:20.582Z,11.02
2018-04-07T05:33:20.536Z,11.02
2018-04-07T05:34:20.497Z,11.15
2018-04-07T05:35:20.449Z,11.18
2018-04-07T05:36:20.411Z,11.16
2018-04-07T05:37:20.361Z,11.18
2018-04-07T05:38:20.320Z,11.26
2018-04-07T05:39:20.273Z,11.26
2018-04-07T05:40:20.237Z,11.22
2018-04-07T05:41:20.188Z,11.26
2018-04-07T05:42:20.142Z,11.26
2018-04-07T05:43:20.098Z,11.25
2018-04-07T05:44:20.052Z,11.33
2018-04-07T05:45:20.048Z,11.43
2018-04-07T05:46:19.965Z,11.44
2018-04-07T05:47:19.959Z,11.49
2018-04-07T05:48:19.878Z,11.48
2018-04-07T05:49:19.834Z,11.43
2018-04-07T05:50:19.791Z,11.41
2018-04-07T05:51:19.745Z,11.56
2018-04-07T05:52:19.702Z,11.53
2018-04-07T05:53:19.662Z,11.48
2018-04-07T05:54:19.621Z,11.51
2018-04-07T05:55:19.573Z,11.60
2018-04-07T05:56:19.524Z,11.58
2018-04-07T05:57:19.485Z,11.52
2018-04-07T05:58:19.443Z,11.59
2018-04-07T05:59:19.396Z,11.71
2018-04-07T06:00:19.350Z,11.65
2018-04-07T06:01:19.312Z,11.68
2018-04-07T06:02:19.267Z,11.68
2018-04-07T06:03:19.223Z,11.74
2018-04-07T06:04:19.176Z,11.93
2018-04-07T06:05:19.133Z,11.91
2018-04-07T06:06:19.097Z,11.95
2018-04-07T06:07:19.053Z,12.05
2018-04-07T06:08:19.003Z,11.95
2018-04-07T06:09:18.961Z,11.97
2018-04-07T06:10:18.926Z,12.03
2018-04-07T06:11:18.881Z,12.03
2018-04-07T06:12:18.826Z,12.07
2018-04-07T06:13:18.796Z,12.17
2018-04-07T06:14:18.791Z,12.17
2018-04-07T06:15:18.697Z,12.17
2018-04-07T06:16:18.654Z,12.15
2018-04-07T06:17:18.611Z,12.23
2018-04-07T06:18:18.570Z,12.20
2018-04-07T06:19:18.524Z,12.21
2018-04-07T06:20:18.479Z,12.29
2018-04-07T06:21:18.438Z,12.32
2018-04-07T06:22:18.393Z,12.30
2018-04-07T06:23:18.349Z,12.37
2018-04-07T06:24:18.306Z,12.39
2018-04-07T06:25:18.265Z,12.45
2018-04-07T06:26:18.221Z,12.47
2018-04-07T06:27:18.177Z,12.45
2018-04-07T06:28:18.132Z,12.53
2018-04-07T06:29:18.090Z,12.55
2018-04-07T06:30:18.048Z,12.58
2018-04-07T06:31:18.005Z,12.61
2018-04-07T06:32:17.962Z,12.63
2018-04-07T06:33:17.918Z,12.62
2018-04-07T06:34:17.875Z,12.65
2018-04-07T06:35:17.831Z,12.81
2018-04-07T06:36:17.787Z,12.76
2018-04-07T06:37:17.745Z,12.75
2018-04-07T06:38:17.703Z,12.81
2018-04-07T06:39:17.657Z,12.90
2018-04-07T06:40:17.617Z,12.83
2018-04-07T06:41:17.571Z,12.91
2018-04-07T06:42:17.530Z,12.94
2018-04-07T06:43:17.490Z,12.95
2018-04-07T06:44:17.442Z,13.02
2018-04-07T06:45:17.401Z,13.02
2018-04-07T06:46:17.358Z,12.99
2018-04-07T06:47:17.313Z,13.12
2018-04-07T06:48:17.275Z,13.16
2018-04-07T06:49:17.228Z,13.16
2018-04-07T06:50:17.186Z,13.20
2018-04-07T06:51:17.143Z,13.30
2018-04-07T06:52:17.101Z,13.30
2018-04-07T06:53:17.057Z,13.40
2018-04-07T06:54:17.014Z,13.43
2018-04-07T06:55:16.972Z,13.54
2018-04-07T06:56:16.928Z,13.52
2018-04-07T06:57:16.885Z,13.52
2018-04-07T06:58:16.840Z,13.62
2018-04-07T06:59:16.820Z,13.68
2018-04-07T07:00:16.762Z,13.76
2018-04-07T07:01:16.721Z,13.98
2018-04-07T07:02:16.675Z,14.03
2018-04-07T07:03:16.629Z,14.38
2018-04-07T07:04:16.585Z,14.81
2018-04-07T07:05:16.542Z,15.39
2018-04-07T07:06:16.500Z,15.92
2018-04-07T07:07:16.458Z,16.32
2018-04-07T07:08:16.418Z,16.69
2018-04-07T07:09:16.374Z,16.98
2018-04-07T07:10:16.332Z,17.30
2018-04-07T07:11:16.293Z,17.41
2018-04-07T07:12:16.248Z,17.59
2018-04-07T07:13:16.211Z,17.76
2018-04-07T07:14:16.167Z,17.69
2018-04-07T07:15:16.135Z,17.53
2018-04-07T07:16:16.085Z,17.32
2018-04-07T07:17:16.044Z,17.52
2018-04-07T07:18:16.018Z,17.63
2018-04-07T07:19:15.962Z,18.03
2018-04-07T07:20:15.923Z,18.41
2018-04-07T07:21:15.887Z,18.57
2018-04-07T07:22:15.840Z,18.71
2018-04-07T07:23:15.807Z,19.08
2018-04-07T07:24:15.762Z,19.29
2018-04-07T07:25:15.719Z,19.49
2018-04-07T07:26:15.683Z,19.64
2018-04-07T07:27:15.640Z,19.78
2018-04-07T07:28:15.600Z,19.89
2018-04-07T07:29:15.562Z,19.92
2018-04-07T07:30:15.527Z,19.93
2018-04-07T07:31:15.483Z,20.04
2018-04-07T07:32:15.445Z,20.24
2018-04-07T07:33:15.407Z,20.50
2018-04-07T07:34:15.363Z,20.70
2018-04-07T07:35:15.368Z,20.89
2018-04-07T07:36:15.285Z,21.05
2018-04-07T07:37:15.248Z,21.07
2018-04-07T07:38:15.222Z,21.17
2018-04-07T07:39:15.176Z,21.26
2018-04-07T07:40:15.141Z,21.58
2018-04-07T07:41:15.096Z,21.83
2018-04-07T07:42:15.061Z,22.01
2018-04-07T07:43:15.020Z,22.22
2018-04-07T07:44:14.987Z,22.37
2018-04-07T07:45:14.945Z,22.61
2018-04-07T07:46:14.907Z,22.65
2018-04-07T07:47:14.869Z,22.89
2018-04-07T07:48:14.830Z,23.01
2018-04-07T07:49:14.799Z,23.08
2018-04-07T07:50:14.762Z,23.33
2018-04-07T07:51:14.720Z,23.42
2018-04-07T07:52:14.686Z,23.40
2018-04-07T07:53:14.648Z,23.34
2018-04-07T07:54:14.614Z,23.36
2018-04-07T07:55:14.575Z,23.45
2018-04-07T07:56:14.542Z,23.58
2018-04-07T07:57:14.512Z,23.66
2018-04-07T07:58:14.469Z,23.84
2018-04-07T07:59:14.437Z,23.86
2018-04-07T08:00:14.393Z,23.96
2018-04-07T08:01:14.361Z,24.01
2018-04-07T08:02:14.324Z,24.00
2018-04-07T08:03:14.288Z,24.00
2018-04-07T08:04:14.251Z,24.19
2018-04-07T08:05:14.216Z,24.28
2018-04-07T08:06:14.186Z,24.32
2018-04-07T08:07:14.150Z,24.51
2018-04-07T08:08:14.109Z,24.58
2018-04-07T08:09:14.075Z,24.82
2018-04-07T08:10:14.040Z,24.82
2018-04-07T08:11:14.005Z,25.04
2018-04-07T08:12:13.970Z,24.94
2018-04-07T08:13:13.936Z,25.01
2018-04-07T08:14:13.908Z,25.03
2018-04-07T08:15:13.866Z,25.11
2018-04-07T08:16:13.830Z,25.15
2018-04-07T08:17:13.800Z,25.12
2018-04-07T08:18:13.760Z,25.29
2018-04-07T08:19:13.729Z,25.43
2018-04-07T08:20:13.691Z,25.46
2018-04-07T08:21:13.660Z,25.58
2018-04-07T08:22:13.627Z,25.67
2018-04-07T08:23:13.590Z,25.77
2018-04-07T08:24:13.552Z,25.86
2018-04-07T08:25:13.520Z,25.88
2018-04-07T08:26:13.529Z,26.04
2018-04-07T08:27:13.451Z,26.19
2018-04-07T08:28:13.417Z,26.24
2018-04-07T08:29:13.384Z,26.19
2018-04-07T08:30:13.348Z,26.18
2018-04-07T08:31:13.316Z,26.22
2018-04-07T08:32:13.369Z,26.22
2018-04-07T08:33:13.247Z,26.37
2018-04-07T08:34:13.215Z,26.42
2018-04-07T08:35:13.186Z,26.45
2018-04-07T08:36:13.146Z,26.41
2018-04-07T08:37:14.896Z,26.24
2018-04-07T08:38:13.085Z,26.23
2018-04-07T08:39:13.050Z,26.16
2018-04-07T08:40:13.013Z,26.15
2018-04-07T08:41:12.980Z,26.34
2018-04-07T08:42:12.947Z,26.26
2018-04-07T08:43:12.911Z,26.16
2018-04-07T08:44:12.876Z,26.06
2018-04-07T08:45:12.845Z,26.06
2018-04-07T08:46:12.811Z,25.98
2018-04-07T08:47:12.775Z,26.15
2018-04-07T08:48:12.748Z,26.23
2018-04-07T08:49:12.708Z,26.16
2018-04-07T08:50:12.675Z,26.27
2018-04-07T08:51:12.638Z,26.19
2018-04-07T08:52:12.611Z,26.16
2018-04-07T08:53:12.573Z,26.30
2018-04-07T08:54:12.542Z,26.16
2018-04-07T08:55:12.504Z,26.18
2018-04-07T08:56:12.470Z,26.16
2018-04-07T08:57:12.436Z,26.04
2018-04-07T08:58:12.402Z,25.99
2018-04-07T08:59:12.368Z,26.04
2018-04-07T09:00:12.334Z,25.80
2018-04-07T09:01:12.301Z,25.73
2018-04-07T09:02:12.265Z,25.80
2018-04-07T09:03:12.231Z,25.71
2018-04-07T09:04:12.196Z,25.73
2018-04-07T09:05:12.187Z,25.74
2018-04-07T09:06:12.127Z,25.67
2018-04-07T09:07:12.096Z,25.51
2018-04-07T09:08:12.061Z,25.49
2018-04-07T09:09:12.023Z,25.51
2018-04-07T09:10:11.990Z,25.61
2018-04-07T09:11:11.958Z,25.74
2018-04-07T09:12:11.922Z,25.89
2018-04-07T09:13:11.885Z,25.93
2018-04-07T09:14:11.854Z,25.95
2018-04-07T09:15:11.814Z,25.86
2018-04-07T09:16:11.782Z,25.71
2018-04-07T09:17:11.747Z,25.55
2018-04-07T09:18:11.715Z,25.63
2018-04-07T09:19:11.680Z,25.68
2018-04-07T09:20:11.640Z,25.68
2018-04-07T09:21:11.607Z,25.54
2018-04-07T09:22:11.576Z,25.54
2018-04-07T09:23:11.538Z,25.49
2018-04-07T09:24:11.502Z,25.51
2018-04-07T09:25:11.471Z,25.39
2018-04-07T09:26:11.432Z,25.31
2018-04-07T09:27:11.399Z,25.07
2018-04-07T09:28:11.371Z,25.09
2018-04-07T09:29:11.329Z,24.97
2018-04-07T09:30:11.292Z,24.92
2018-04-07T09:31:11.257Z,24.75
2018-04-07T09:32:11.221Z,24.69
2018-04-07T09:33:11.190Z,24.78
2018-04-07T09:34:11.161Z,24.79
2018-04-07T09:35:11.118Z,24.75
2018-04-07T09:36:11.082Z,24.86
2018-04-07T09:37:11.047Z,24.84
2018-04-07T09:38:11.009Z,24.82
2018-04-07T09:39:10.977Z,24.68
2018-04-07T09:40:10.942Z,24.69
2018-04-07T09:41:10.903Z,24.62
2018-04-07T09:42:10.868Z,24.78
2018-04-07T09:43:10.835Z,24.81
2018-04-07T09:44:10.800Z,24.82
2018-04-07T09:45:10.764Z,24.75
2018-04-07T09:46:10.727Z,24.77
2018-04-07T09:47:10.691Z,24.78
2018-04-07T09:48:10.656Z,24.62
2018-04-07T09:49:10.627Z,24.74
2018-04-07T09:50:10.598Z,24.78
2018-04-07T09:51:10.567Z,24.78
2018-04-07T09:52:10.516Z,24.77
2018-04-07T09:53:10.481Z,24.69
2018-04-07T09:54:10.444Z,24.78
2018-04-07T09:55:10.409Z,24.66
2018-04-07T09:56:10.374Z,24.71
2018-04-07T09:57:10.383Z,24.68
2018-04-07T09:58:10.305Z,24.81
2018-04-07T09:59:10.271Z,24.78
2018-04-07T10:00:10.232Z,24.78
2018-04-07T10:01:10.197Z,24.71
2018-04-07T10:02:10.163Z,24.69
2018-04-07T10:03:10.127Z,24.69
2018-04-07T10:04:10.092Z,24.71
2018-04-07T10:05:10.055Z,24.78
2018-04-07T10:06:10.019Z,24.78
2018-04-07T10:07:09.986Z,24.88
2018-04-07T10:08:09.948Z,24.92
2018-04-07T10:09:09.917Z,24.97
2018-04-07T10:10:09.883Z,25.12
2018-04-07T10:11:09.847Z,25.21
2018-04-07T10:12:09.807Z,25.37
2018-04-07T10:13:09.775Z,25.58
2018-04-07T10:14:09.739Z,25.66
2018-04-07T10:15:09.705Z,25.68
2018-04-07T10:16:09.669Z,25.68
2018-04-07T10:17:09.636Z,25.73
2018-04-07T10:18:09.601Z,25.78
2018-04-07T10:19:09.566Z,25.74
2018-04-07T10:20:09.531Z,25.76
2018-04-07T10:21:09.498Z,25.76
2018-04-07T10:22:09.472Z,25.86
2018-04-07T10:23:09.426Z,25.91
2018-04-07T10:24:09.392Z,25.95
2018-04-07T10:25:09.358Z,25.89
2018-04-07T10:26:09.322Z,25.73
2018-04-07T10:27:09.341Z,25.67
2018-04-07T10:28:09.281Z,25.55
2018-04-07T10:29:09.217Z,25.56
2018-04-07T10:30:09.191Z,25.68
2018-04-07T10:31:09.158Z,25.71
2018-04-07T10:32:09.117Z,25.80
2018-04-07T10:33:09.082Z,25.81
2018-04-07T10:34:09.046Z,25.89
2018-04-07T10:35:09.011Z,25.99
2018-04-07T10:36:08.976Z,26.01
2018-04-07T10:37:08.941Z,25.89
2018-04-07T10:38:08.909Z,25.92
2018-04-07T10:39:08.872Z,25.92
2018-04-07T10:40:08.836Z,25.89
2018-04-07T10:41:08.802Z,25.96
2018-04-07T10:42:09.474Z,26.03
2018-04-07T10:43:08.740Z,26.01
2018-04-07T10:44:08.696Z,26.04
2018-04-07T10:45:08.667Z,26.19
2018-04-07T10:46:08.629Z,26.16
2018-04-07T10:47:08.599Z,26.13
2018-04-07T10:48:08.558Z,26.24
2018-04-07T10:49:08.524Z,26.18
2018-04-07T10:50:08.492Z,26.15
2018-04-07T10:51:08.458Z,26.19
2018-04-07T10:52:08.425Z,26.22
2018-04-07T10:53:08.390Z,26.06
2018-04-07T10:54:08.350Z,26.07
2018-04-07T10:55:08.317Z,26.08
2018-04-07T10:56:08.281Z,26.19
2018-04-07T10:57:08.251Z,26.07
2018-04-07T10:58:08.217Z,26.08
2018-04-07T10:59:08.181Z,26.04
2018-04-07T11:00:08.146Z,25.98
2018-04-07T11:01:08.107Z,26.03
2018-04-07T11:02:08.074Z,26.06
2018-04-07T11:03:08.042Z,26.10
2018-04-07T11:04:08.006Z,26.15
2018-04-07T11:05:07.972Z,26.19
2018-04-07T11:06:07.961Z,26.11
2018-04-07T11:07:07.902Z,26.13
2018-04-07T11:08:07.866Z,26.19
2018-04-07T11:09:07.829Z,26.11
2018-04-07T11:10:07.795Z,26.03
2018-04-07T11:11:07.763Z,26.16
2018-04-07T11:12:07.733Z,26.16
2018-04-07T11:13:07.692Z,26.24
2018-04-07T11:14:07.654Z,26.27
2018-04-07T11:15:07.650Z,26.31
2018-04-07T11:16:07.589Z,26.46
2018-04-07T11:17:07.557Z,26.53
2018-04-07T11:18:07.516Z,26.67
2018-04-07T11:19:07.485Z,26.79
2018-04-07T11:20:07.459Z,26.88
2018-04-07T11:21:07.416Z,26.98
2018-04-07T11:22:07.380Z,27.08
2018-04-07T11:23:07.349Z,27.19
2018-04-07T11:24:07.319Z,27.30
2018-04-07T11:25:07.278Z,27.41
2018-04-07T11:26:07.255Z,27.75
2018-04-07T11:27:07.208Z,27.90
2018-04-07T11:28:07.170Z,28.19
2018-04-07T11:29:07.139Z,28.55
2018-04-07T11:30:07.103Z,28.84
2018-04-07T11:31:07.077Z,29.13
2018-04-07T11:32:07.036Z,29.39
2018-04-07T11:33:07.002Z,29.83
2018-04-07T11:34:06.973Z,30.29
2018-04-07T11:35:06.937Z,30.65
2018-04-07T11:36:06.909Z,30.74
2018-04-07T11:37:06.872Z,31.00
2018-04-07T11:38:06.839Z,31.20
2018-04-07T11:39:06.806Z,31.47
2018-04-07T11:40:06.773Z,31.48
2018-04-07T11:41:06.743Z,31.66
2018-04-07T11:42:06.708Z,31.85
2018-04-07T11:43:09.528Z,31.72
2018-04-07T11:44:06.650Z,31.62
2018-04-07T11:45:06.662Z,31.44
2018-04-07T11:46:06.580Z,31.52
2018-04-07T11:47:06.547Z,31.57
2018-04-07T11:48:06.517Z,31.52
2018-04-07T11:49:06.485Z,31.57
2018-04-07T11:50:06.460Z,31.59
2018-04-07T11:51:06.420Z,31.67
2018-04-07T11:52:06.387Z,31.95
2018-04-07T11:53:06.375Z,32.00
2018-04-07T11:54:06.328Z,32.37
2018-04-07T11:55:06.291Z,32.79
2018-04-07T11:56:06.258Z,33.03
2018-04-07T11:57:06.232Z,33.22
2018-04-07T11:58:06.194Z,33.60
2018-04-07T11:59:06.162Z,33.79
2018-04-07T12:00:06.129Z,33.89
2018-04-07T12:01:06.100Z,34.07
2018-04-07T12:02:06.069Z,34.10
2018-04-07T12:03:06.041Z,34.14
2018-04-07T12:04:06.006Z,34.33
2018-04-07T12:05:05.975Z,34.16
2018-04-07T12:06:05.943Z,34.02
2018-04-07T12:07:05.914Z,33.73
2018-04-07T12:08:05.880Z,33.87
2018-04-07T12:09:05.855Z,34.00
2018-04-07T12:10:05.819Z,33.79
2018-04-07T12:11:05.822Z,33.72
2018-04-07T12:12:05.803Z,33.69
2018-04-07T12:13:05.728Z,33.77
2018-04-07T12:14:05.696Z,33.66
2018-04-07T12:15:05.667Z,33.69
2018-04-07T12:16:05.633Z,33.54
2018-04-07T12:17:05.602Z,33.47
2018-04-07T12:18:05.570Z,33.50
2018-04-07T12:19:05.544Z,33.03
2018-04-07T12:20:05.513Z,32.72
2018-04-07T12:21:05.478Z,32.46
2018-04-07T12:22:05.445Z,32.22
2018-04-07T12:23:05.417Z,32.24
2018-04-07T12:24:05.382Z,32.12
2018-04-07T12:25:05.352Z,32.19
2018-04-07T12:26:05.330Z,32.24
2018-04-07T12:27:05.293Z,32.31
2018-04-07T12:28:05.260Z,32.56
2018-04-07T12:29:05.229Z,32.68
2018-04-07T12:30:05.196Z,32.76
2018-04-07T12:31:05.175Z,32.83
2018-04-07T12:32:05.134Z,32.73
2018-04-07T12:33:05.111Z,32.90
2018-04-07T12:34:05.075Z,32.93
2018-04-07T12:35:05.050Z,33.09
2018-04-07T12:36:05.011Z,32.88
2018-04-07T12:37:04.980Z,32.81
2018-04-07T12:38:04.946Z,32.97
2018-04-07T12:39:04.921Z,33.12
2018-04-07T12:40:04.884Z,33.23
2018-04-07T12:41:04.855Z,33.35
2018-04-07T12:42:04.820Z,33.57
2018-04-07T12:43:04.790Z,33.63
2018-04-07T12:44:09.814Z,33.75
2018-04-07T12:45:04.729Z,34.00
2018-04-07T12:46:04.695Z,34.19
2018-04-07T12:47:04.667Z,34.46
2018-04-07T12:48:04.633Z,34.76
2018-04-07T12:49:04.606Z,35.01
2018-04-07T12:50:04.572Z,35.10
2018-04-07T12:51:04.542Z,35.25
2018-04-07T12:52:04.510Z,35.39